sensor_id;sensor_type;location;lat;lon;timestamp;pressure;altitude;pressure_sealevel;temperature;humidity
21433;BME280;18592;49.708;10.900;2024-02-15T00:00:42;99050.31;;;18.19;54.48
21433;BME280;18592;49.708;10.900;2024-02-15T00:02:44;99044.78;;;18.19;54.38
21433;BME280;18592;49.708;10.900;2024-02-15T00:05:04;99046.72;;;18.18;54.23
21433;BME280;18592;49.708;10.900;2024-02-15T00:07:06;99053.34;;;18.17;54.43
21433;BME280;18592;49.708;10.900;2024-02-15T00:09:08;99044.78;;;18.19;54.64
21433;BME280;18592;49.708;10.900;2024-02-15T00:11:09;99037.59;;;18.18;54.46
21433;BME280;18592;49.708;10.900;2024-02-15T00:13:11;99042.03;;;18.19;54.52
21433;BME280;18592;49.708;10.900;2024-02-15T00:15:13;99039.25;;;18.19;54.60
21433;BME280;18592;49.708;10.900;2024-02-15T00:17:14;99043.97;;;18.18;54.51
21433;BME280;18592;49.708;10.900;2024-02-15T00:19:17;99034.84;;;18.18;54.57
21433;BME280;18592;49.708;10.900;2024-02-15T00:21:19;99036.50;;;18.19;54.51
21433;BME280;18592;49.708;10.900;2024-02-15T00:23:20;99031.00;;;18.19;54.53
21433;BME280;18592;49.708;10.900;2024-02-15T00:25:22;99033.19;;;18.17;54.36
21433;BME280;18592;49.708;10.900;2024-02-15T00:27:24;99030.44;;;18.17;54.30
21433;BME280;18592;49.708;10.900;2024-02-15T00:29:25;99033.19;;;18.17;54.40
21433;BME280;18592;49.708;10.900;2024-02-15T00:31:30;99028.81;;;18.16;54.40
21433;BME280;18592;49.708;10.900;2024-02-15T00:33:31;99037.91;;;18.16;54.44
21433;BME280;18592;49.708;10.900;2024-02-15T00:35:33;99027.97;;;18.15;54.38
21433;BME280;18592;49.708;10.900;2024-02-15T00:37:35;99039.31;;;18.14;54.29
21433;BME280;18592;49.708;10.900;2024-02-15T00:39:40;99031.31;;;18.12;54.14
21433;BME280;18592;49.708;10.900;2024-02-15T00:41:41;99031.59;;;18.11;54.39
21433;BME280;18592;49.708;10.900;2024-02-15T00:43:43;99037.38;;;18.09;54.33
21433;BME280;18592;49.708;10.900;2024-02-15T00:45:45;99029.94;;;18.10;54.26
21433;BME280;18592;49.708;10.900;2024-02-15T00:47:47;99030.25;;;18.08;54.09
21433;BME280;18592;49.708;10.900;2024-02-15T00:49:49;99034.09;;;18.07;54.21
21433;BME280;18592;49.708;10.900;2024-02-15T00:51:51;99029.72;;;18.06;54.41
21433;BME280;18592;49.708;10.900;2024-02-15T00:53:53;99028.06;;;18.05;54.31
21433;BME280;18592;49.708;10.900;2024-02-15T00:55:55;99026.41;;;18.04;54.25
21433;BME280;18592;49.708;10.900;2024-02-15T00:57:57;99030.28;;;18.03;54.31
21433;BME280;18592;49.708;10.900;2024-02-15T00:59:59;99026.69;;;18.03;54.47
21433;BME280;18592;49.708;10.900;2024-02-15T01:02:01;99023.94;;;18.03;54.32
21433;BME280;18592;49.708;10.900;2024-02-15T01:04:04;99029.44;;;18.03;54.55
21433;BME280;18592;49.708;10.900;2024-02-15T01:06:06;99034.97;;;18.03;54.53
21433;BME280;18592;49.708;10.900;2024-02-15T01:08:08;99026.69;;;18.03;54.56
21433;BME280;18592;49.708;10.900;2024-02-15T01:10:10;99030.56;;;18.02;54.52
21433;BME280;18592;49.708;10.900;2024-02-15T01:12:11;99029.72;;;18.01;54.51
21433;BME280;18592;49.708;10.900;2024-02-15T01:14:14;99032.47;;;18.01;54.55
21433;BME280;18592;49.708;10.900;2024-02-15T01:16:16;99037.19;;;18.01;54.70
21433;BME280;18592;49.708;10.900;2024-02-15T01:18:18;99038.00;;;18.01;54.86
21433;BME280;18592;49.708;10.900;2024-02-15T01:20:20;99030.84;;;18.00;54.77
21433;BME280;18592;49.708;10.900;2024-02-15T01:22:22;99031.69;;;18.01;54.78
21433;BME280;18592;49.708;10.900;2024-02-15T01:24:28;99030.84;;;18.00;54.76
21433;BME280;18592;49.708;10.900;2024-02-15T01:26:32;99022.28;;;18.02;54.79
21433;BME280;18592;49.708;10.900;2024-02-15T01:28:33;99032.22;;;18.03;54.70
21433;BME280;18592;49.708;10.900;2024-02-15T01:30:35;99042.94;;;18.04;54.75
21433;BME280;18592;49.708;10.900;2024-02-15T01:32:37;99030.28;;;18.03;54.75
21433;BME280;18592;49.708;10.900;2024-02-15T01:34:40;99030.81;;;18.05;54.72
21433;BME280;18592;49.708;10.900;2024-02-15T01:36:41;99029.72;;;18.06;54.92
21433;BME280;18592;49.708;10.900;2024-02-15T01:38:43;99029.72;;;18.06;54.78
21433;BME280;18592;49.708;10.900;2024-02-15T01:40:46;99021.69;;;18.05;54.67
21433;BME280;18592;49.708;10.900;2024-02-15T01:42:48;99025.00;;;18.07;54.91
21433;BME280;18592;49.708;10.900;2024-02-15T01:44:51;99031.06;;;18.09;54.64
21433;BME280;18592;49.708;10.900;2024-02-15T01:46:54;99025.56;;;18.09;54.77
21433;BME280;18592;49.708;10.900;2024-02-15T01:48:56;99026.34;;;18.09;54.55
21433;BME280;18592;49.708;10.900;2024-02-15T01:50:58;99016.97;;;18.10;54.79
21433;BME280;18592;49.708;10.900;2024-02-15T01:53:01;99013.38;;;18.10;54.64
21433;BME280;18592;49.708;10.900;2024-02-15T01:55:06;99015.88;;;18.11;54.78
21433;BME280;18592;49.708;10.900;2024-02-15T01:57:09;99020.56;;;18.11;54.65
21433;BME280;18592;49.708;10.900;2024-02-15T01:59:15;99013.38;;;18.10;54.66
21433;BME280;18592;49.708;10.900;2024-02-15T02:01:19;99022.50;;;18.10;54.67
21433;BME280;18592;49.708;10.900;2024-02-15T02:03:22;99011.97;;;18.12;54.71
21433;BME280;18592;49.708;10.900;2024-02-15T02:05:24;99011.16;;;18.12;54.75
21433;BME280;18592;49.708;10.900;2024-02-15T02:07:26;99011.97;;;18.12;54.62
21433;BME280;18592;49.708;10.900;2024-02-15T02:09:28;99015.56;;;18.13;54.70
21433;BME280;18592;49.708;10.900;2024-02-15T02:11:30;99014.75;;;18.12;54.54
21433;BME280;18592;49.708;10.900;2024-02-15T02:13:31;99014.75;;;18.12;54.71
21433;BME280;18592;49.708;10.900;2024-02-15T02:15:34;99020.78;;;18.14;54.46
21433;BME280;18592;49.708;10.900;2024-02-15T02:17:35;99008.97;;;18.14;54.42
21433;BME280;18592;49.708;10.900;2024-02-15T02:19:37;99013.66;;;18.13;54.65
21433;BME280;18592;49.708;10.900;2024-02-15T02:21:40;99009.75;;;18.14;54.67
21433;BME280;18592;49.708;10.900;2024-02-15T02:23:42;99013.06;;;18.16;54.65
21433;BME280;18592;49.708;10.900;2024-02-15T02:25:44;99007.56;;;18.16;54.48
21433;BME280;18592;49.708;10.900;2024-02-15T02:27:48;99011.09;;;18.17;54.61
21433;BME280;18592;49.708;10.900;2024-02-15T02:29:50;99012.25;;;18.16;54.39
21433;BME280;18592;49.708;10.900;2024-02-15T02:31:52;99008.34;;;18.17;54.38
21433;BME280;18592;49.708;10.900;2024-02-15T02:33:54;99013.06;;;18.16;54.38
21433;BME280;18592;49.708;10.900;2024-02-15T02:35:56;99011.94;;;18.17;54.42
21433;BME280;18592;49.708;10.900;2024-02-15T02:37:59;99015.84;;;18.16;54.24
21433;BME280;18592;49.708;10.900;2024-02-15T02:40:00;99013.88;;;18.17;54.18
21433;BME280;18592;49.708;10.900;2024-02-15T02:42:02;99013.06;;;18.16;54.22
21433;BME280;18592;49.708;10.900;2024-02-15T02:44:04;99005.91;;;18.15;54.36
21433;BME280;18592;49.708;10.900;2024-02-15T02:46:06;99012.25;;;18.16;54.21
21433;BME280;18592;49.708;10.900;2024-02-15T02:48:07;99009.75;;;18.14;54.28
21433;BME280;18592;49.708;10.900;2024-02-15T02:50:09;99009.75;;;18.14;54.18
21433;BME280;18592;49.708;10.900;2024-02-15T02:52:11;99005.06;;;18.15;54.18
21433;BME280;18592;49.708;10.900;2024-02-15T02:54:12;99009.75;;;18.14;54.34
21433;BME280;18592;49.708;10.900;2024-02-15T02:56:16;99008.66;;;18.15;54.52
21433;BME280;18592;49.708;10.900;2024-02-15T02:58:20;99018.59;;;18.16;54.48
21433;BME280;18592;49.708;10.900;2024-02-15T03:00:21;99016.94;;;18.15;54.42
21433;BME280;18592;49.708;10.900;2024-02-15T03:02:24;99011.41;;;18.15;54.48
21433;BME280;18592;49.708;10.900;2024-02-15T03:04:26;99012.25;;;18.16;54.44
21433;BME280;18592;49.708;10.900;2024-02-15T03:06:27;99007.56;;;18.16;54.42
21433;BME280;18592;49.708;10.900;2024-02-15T03:08:29;99008.34;;;18.17;54.59
21433;BME280;18592;49.708;10.900;2024-02-15T03:10:31;99015.53;;;18.18;54.21
21433;BME280;18592;49.708;10.900;2024-02-15T03:12:32;99013.59;;;18.18;54.30
21433;BME280;18592;49.708;10.900;2024-02-15T03:14:36;99015.53;;;18.18;54.42
21433;BME280;18592;49.708;10.900;2024-02-15T03:16:38;99006.41;;;18.17;54.84
21433;BME280;18592;49.708;10.900;2024-02-15T03:18:40;99008.91;;;18.19;54.64
21433;BME280;18592;49.708;10.900;2024-02-15T03:20:43;99008.09;;;18.18;54.47
21433;BME280;18592;49.708;10.900;2024-02-15T03:22:44;99006.16;;;18.19;54.52
21433;BME280;18592;49.708;10.900;2024-02-15T03:24:46;99006.94;;;18.19;54.23
21433;BME280;18592;49.708;10.900;2024-02-15T03:26:48;99008.59;;;18.20;54.28
21433;BME280;18592;49.708;10.900;2024-02-15T03:28:49;99002.25;;;18.20;54.48
21433;BME280;18592;49.708;10.900;2024-02-15T03:30:54;98998.66;;;18.19;54.25
21433;BME280;18592;49.708;10.900;2024-02-15T03:32:58;99003.09;;;18.20;54.36
21433;BME280;18592;49.708;10.900;2024-02-15T03:34:59;99002.25;;;18.20;54.33
21433;BME280;18592;49.708;10.900;2024-02-15T03:37:02;99002.25;;;18.20;54.40
21433;BME280;18592;49.708;10.900;2024-02-15T03:39:05;99003.09;;;18.20;54.33
21433;BME280;18592;49.708;10.900;2024-02-15T03:41:07;99001.44;;;18.19;54.16
21433;BME280;18592;49.708;10.900;2024-02-15T03:43:09;98999.50;;;18.20;54.02
21433;BME280;18592;49.708;10.900;2024-02-15T03:45:10;99009.19;;;18.17;54.08
21433;BME280;18592;49.708;10.900;2024-02-15T03:47:12;99011.09;;;18.17;53.97
21433;BME280;18592;49.708;10.900;2024-02-15T03:49:15;99011.41;;;18.15;53.92
21433;BME280;18592;49.708;10.900;2024-02-15T03:51:17;99015.00;;;18.16;54.06
21433;BME280;18592;49.708;10.900;2024-02-15T03:53:22;99004.25;;;18.14;54.12
21433;BME280;18592;49.708;10.900;2024-02-15T03:55:23;99014.47;;;18.14;53.98
21433;BME280;18592;49.708;10.900;2024-02-15T03:57:27;99005.38;;;18.13;54.06
21433;BME280;18592;49.708;10.900;2024-02-15T03:59:29;99011.97;;;18.12;53.95
21433;BME280;18592;49.708;10.900;2024-02-15T04:01:33;99009.53;;;18.11;54.10
21433;BME280;18592;49.708;10.900;2024-02-15T04:03:35;99014.22;;;18.10;54.08
21433;BME280;18592;49.708;10.900;2024-02-15T04:05:37;99014.22;;;18.10;54.05
21433;BME280;18592;49.708;10.900;2024-02-15T04:07:40;99020.84;;;18.09;54.06
21433;BME280;18592;49.708;10.900;2024-02-15T04:09:42;99016.44;;;18.08;54.10
21433;BME280;18592;49.708;10.900;2024-02-15T04:11:44;99019.47;;;18.07;54.19
21433;BME280;18592;49.708;10.900;2024-02-15T04:13:48;99018.69;;;18.06;54.03
21433;BME280;18592;49.708;10.900;2024-02-15T04:15:50;99015.91;;;18.06;54.18
21433;BME280;18592;49.708;10.900;2024-02-15T04:17:54;99028.88;;;18.06;54.44
21433;BME280;18592;49.708;10.900;2024-02-15T04:19:58;99016.72;;;18.07;54.29
21433;BME280;18592;49.708;10.900;2024-02-15T04:21:59;99018.69;;;18.06;54.53
21433;BME280;18592;49.708;10.900;2024-02-15T04:24:06;99021.44;;;18.06;54.37
21433;BME280;18592;49.708;10.900;2024-02-15T04:26:08;99026.94;;;18.06;54.33
21433;BME280;18592;49.708;10.900;2024-02-15T04:28:09;99022.22;;;18.07;54.38
21433;BME280;18592;49.708;10.900;2024-02-15T04:30:11;99023.06;;;18.07;54.46
21433;BME280;18592;49.708;10.900;2024-02-15T04:32:13;99022.22;;;18.07;54.28
21433;BME280;18592;49.708;10.900;2024-02-15T04:34:15;99020.03;;;18.09;54.22
21433;BME280;18592;49.708;10.900;2024-02-15T04:36:17;99018.06;;;18.09;54.35
21433;BME280;18592;49.708;10.900;2024-02-15T04:38:24;99022.78;;;18.09;54.50
21433;BME280;18592;49.708;10.900;2024-02-15T04:40:26;99021.97;;;18.08;54.37
21433;BME280;18592;49.708;10.900;2024-02-15T04:42:28;99020.03;;;18.09;54.32
21433;BME280;18592;49.708;10.900;2024-02-15T04:44:32;99016.16;;;18.10;54.29
21433;BME280;18592;49.708;10.900;2024-02-15T04:46:36;99018.91;;;18.10;54.42
21433;BME280;18592;49.708;10.900;2024-02-15T04:48:38;99013.38;;;18.10;54.38
21433;BME280;18592;49.708;10.900;2024-02-15T04:50:39;99020.56;;;18.11;54.23
21433;BME280;18592;49.708;10.900;2024-02-15T04:52:44;99009.78;;;18.09;54.28
21433;BME280;18592;49.708;10.900;2024-02-15T04:54:47;99025.25;;;18.10;54.35
21433;BME280;18592;49.708;10.900;2024-02-15T04:56:49;99023.31;;;18.11;54.34
21433;BME280;18592;49.708;10.900;2024-02-15T04:58:55;99022.50;;;18.10;54.33
21433;BME280;18592;49.708;10.900;2024-02-15T05:01:01;99022.78;;;18.09;54.43
21433;BME280;18592;49.708;10.900;2024-02-15T05:03:04;99015.31;;;18.09;54.27
21433;BME280;18592;49.708;10.900;2024-02-15T05:05:09;99014.50;;;18.09;54.40
21433;BME280;18592;49.708;10.900;2024-02-15T05:07:11;99017.28;;;18.09;54.27
21433;BME280;18592;49.708;10.900;2024-02-15T05:09:13;99022.78;;;18.09;54.46
21433;BME280;18592;49.708;10.900;2024-02-15T05:11:14;99014.50;;;18.09;54.49
21433;BME280;18592;49.708;10.900;2024-02-15T05:13:26;99007.03;;;18.09;54.29
21433;BME280;18592;49.708;10.900;2024-02-15T05:15:28;99016.97;;;18.10;54.22
21433;BME280;18592;49.708;10.900;2024-02-15T05:17:30;99015.88;;;18.11;54.33
21433;BME280;18592;49.708;10.900;2024-02-15T05:19:33;99021.09;;;18.13;54.42
21433;BME280;18592;49.708;10.900;2024-02-15T05:21:35;99021.41;;;18.11;54.39
21433;BME280;18592;49.708;10.900;2024-02-15T05:23:37;99016.41;;;18.13;54.24
21433;BME280;18592;49.708;10.900;2024-02-15T05:25:40;99015.56;;;18.13;54.29
21433;BME280;18592;49.708;10.900;2024-02-15T05:27:42;99020.78;;;18.14;54.24
21433;BME280;18592;49.708;10.900;2024-02-15T05:29:45;99014.47;;;18.14;54.25
21433;BME280;18592;49.708;10.900;2024-02-15T05:31:47;99018.03;;;18.14;54.27
21433;BME280;18592;49.708;10.900;2024-02-15T05:33:52;99015.56;;;18.13;54.16
21433;BME280;18592;49.708;10.900;2024-02-15T05:35:55;99024.69;;;18.13;53.96
21433;BME280;18592;49.708;10.900;2024-02-15T05:37:56;99021.41;;;18.11;54.18
21433;BME280;18592;49.708;10.900;2024-02-15T05:39:58;99026.91;;;18.11;54.15
21433;BME280;18592;49.708;10.900;2024-02-15T05:41:59;99023.03;;;18.12;54.10
21433;BME280;18592;49.708;10.900;2024-02-15T05:44:02;99023.03;;;18.12;54.20
21433;BME280;18592;49.708;10.900;2024-02-15T05:46:09;99024.69;;;18.13;54.20
21433;BME280;18592;49.708;10.900;2024-02-15T05:48:10;99028.53;;;18.12;54.14
21433;BME280;18592;49.708;10.900;2024-02-15T05:50:14;99030.19;;;18.13;54.13
21433;BME280;18592;49.708;10.900;2024-02-15T05:52:16;99025.78;;;18.12;54.11
21433;BME280;18592;49.708;10.900;2024-02-15T05:54:19;99028.53;;;18.12;54.12
21433;BME280;18592;49.708;10.900;2024-02-15T05:56:24;99022.19;;;18.12;54.11
21433;BME280;18592;49.708;10.900;2024-02-15T05:58:27;99025.78;;;18.12;54.21
21433;BME280;18592;49.708;10.900;2024-02-15T06:00:28;99023.03;;;18.12;54.14
21433;BME280;18592;49.708;10.900;2024-02-15T06:02:32;99024.69;;;18.13;53.93
21433;BME280;18592;49.708;10.900;2024-02-15T06:04:34;99019.16;;;18.13;53.68
21433;BME280;18592;49.708;10.900;2024-02-15T06:06:35;99023.84;;;18.13;53.80
21433;BME280;18592;49.708;10.900;2024-02-15T06:08:37;99020.00;;;18.14;53.76
21433;BME280;18592;49.708;10.900;2024-02-15T06:10:39;99023.03;;;18.12;54.06
21433;BME280;18592;49.708;10.900;2024-02-15T06:12:42;99028.53;;;18.12;54.10
21433;BME280;18592;49.708;10.900;2024-02-15T06:14:43;99025.50;;;18.14;53.98
21433;BME280;18592;49.708;10.900;2024-02-15T06:16:45;99024.94;;;18.12;54.20
21433;BME280;18592;49.708;10.900;2024-02-15T06:18:47;99023.03;;;18.12;53.95
21433;BME280;18592;49.708;10.900;2024-02-15T06:20:50;99034.06;;;18.12;54.03
21433;BME280;18592;49.708;10.900;2024-02-15T06:22:55;99027.72;;;18.12;54.08
21433;BME280;18592;49.708;10.900;2024-02-15T06:24:57;99033.22;;;18.12;53.89
21433;BME280;18592;49.708;10.900;2024-02-15T06:26:58;99028.00;;;18.10;54.21
21433;BME280;18592;49.708;10.900;2024-02-15T06:29:01;99032.44;;;18.11;53.88
21433;BME280;18592;49.708;10.900;2024-02-15T06:31:21;99039.03;;;18.10;54.02
21433;BME280;18592;49.708;10.900;2024-02-15T06:33:42;99044.03;;;18.08;54.00
21433;BME280;18592;49.708;10.900;2024-02-15T06:36:06;99038.53;;;18.08;54.03
21433;BME280;18592;49.708;10.900;2024-02-15T06:38:26;99042.94;;;18.04;53.93
21433;BME280;18592;49.708;10.900;2024-02-15T06:40:47;99039.34;;;18.04;54.09
21433;BME280;18592;49.708;10.900;2024-02-15T06:42:48;99048.47;;;18.04;54.27
21433;BME280;18592;49.708;10.900;2024-02-15T06:44:50;99042.94;;;18.04;53.97
21433;BME280;18592;49.708;10.900;2024-02-15T06:46:51;99050.41;;;18.04;53.83
21433;BME280;18592;49.708;10.900;2024-02-15T06:48:53;99042.94;;;18.04;53.73
21433;BME280;18592;49.708;10.900;2024-02-15T06:50:56;99046.28;;;18.01;53.98
21433;BME280;18592;49.708;10.900;2024-02-15T06:52:58;99040.50;;;18.03;54.05
21433;BME280;18592;49.708;10.900;2024-02-15T06:54:59;99044.06;;;18.03;54.09
21433;BME280;18592;49.708;10.900;2024-02-15T06:57:02;99045.19;;;18.02;53.82
21433;BME280;18592;49.708;10.900;2024-02-15T06:59:04;99038.00;;;18.01;53.99
21433;BME280;18592;49.708;10.900;2024-02-15T07:01:06;99044.88;;;18.04;54.07
21433;BME280;18592;49.708;10.900;2024-02-15T07:03:08;99050.41;;;18.04;53.97
21433;BME280;18592;49.708;10.900;2024-02-15T07:05:10;99047.94;;;18.02;53.75
21433;BME280;18592;49.708;10.900;2024-02-15T07:07:11;99039.66;;;18.02;53.94
21433;BME280;18592;49.708;10.900;2024-02-15T07:09:15;99041.59;;;18.02;53.86
21433;BME280;18592;49.708;10.900;2024-02-15T07:11:19;99042.41;;;18.02;54.15
21433;BME280;18592;49.708;10.900;2024-02-15T07:13:21;99035.25;;;18.01;54.01
21433;BME280;18592;49.708;10.900;2024-02-15T07:15:23;99038.00;;;18.01;53.88
21433;BME280;18592;49.708;10.900;2024-02-15T07:17:25;99043.81;;;18.00;53.94
21433;BME280;18592;49.708;10.900;2024-02-15T07:19:26;99038.00;;;18.01;54.08
21433;BME280;18592;49.708;10.900;2024-02-15T07:21:34;99036.38;;;18.00;54.14
21433;BME280;18592;49.708;10.900;2024-02-15T07:23:43;99039.13;;;18.00;54.10
21433;BME280;18592;49.708;10.900;2024-02-15T07:26:03;99044.91;;;17.99;54.22
21433;BME280;18592;49.708;10.900;2024-02-15T07:28:05;99045.47;;;18.01;54.00
21433;BME280;18592;49.708;10.900;2024-02-15T07:30:07;99037.47;;;17.99;53.85
21433;BME280;18592;49.708;10.900;2024-02-15T07:32:10;99041.88;;;18.00;53.88
21433;BME280;18592;49.708;10.900;2024-02-15T07:34:13;99047.41;;;18.00;53.88
21433;BME280;18592;49.708;10.900;2024-02-15T07:36:21;99051.56;;;17.98;53.73
21433;BME280;18592;49.708;10.900;2024-02-15T07:38:23;99051.81;;;17.96;53.75
21433;BME280;18592;49.708;10.900;2024-02-15T07:40:26;99040.78;;;17.96;54.08
21433;BME280;18592;49.708;10.900;2024-02-15T07:42:31;99042.44;;;17.97;54.02
21433;BME280;18592;49.708;10.900;2024-02-15T07:44:32;99046.03;;;17.98;53.97
21433;BME280;18592;49.708;10.900;2024-02-15T07:46:36;99047.97;;;17.97;54.35
21433;BME280;18592;49.708;10.900;2024-02-15T07:48:40;99058.44;;;18.00;54.48
21433;BME280;18592;49.708;10.900;2024-02-15T07:50:46;99051.25;;;17.99;54.50
21433;BME280;18592;49.708;10.900;2024-02-15T07:52:49;99059.28;;;18.01;54.48
21433;BME280;18592;49.708;10.900;2024-02-15T07:54:50;99053.44;;;18.02;54.42
21433;BME280;18592;49.708;10.900;2024-02-15T07:56:53;99056.75;;;18.04;54.44
21433;BME280;18592;49.708;10.900;2024-02-15T07:58:55;99053.72;;;18.06;54.38
21433;BME280;18592;49.708;10.900;2024-02-15T08:00:57;99039.91;;;18.06;54.44
21433;BME280;18592;49.708;10.900;2024-02-15T08:02:59;99056.69;;;18.09;54.57
21433;BME280;18592;49.708;10.900;2024-02-15T08:05:00;99041.28;;;18.08;54.37
21433;BME280;18592;49.708;10.900;2024-02-15T08:07:06;99042.63;;;18.11;54.53
21433;BME280;18592;49.708;10.900;2024-02-15T08:09:30;99036.81;;;18.12;54.63
21433;BME280;18592;49.708;10.900;2024-02-15T08:12:08;99031.03;;;18.14;54.54
21433;BME280;18592;49.708;10.900;2024-02-15T08:14:23;99027.97;;;18.15;54.56
21433;BME280;18592;49.708;10.900;2024-02-15T08:16:25;99028.50;;;18.17;54.40
21433;BME280;18592;49.708;10.900;2024-02-15T08:18:30;99018.00;;;18.19;54.42
21433;BME280;18592;49.708;10.900;2024-02-15T08:20:31;99027.63;;;18.22;54.36
21433;BME280;18592;49.708;10.900;2024-02-15T08:22:34;99027.34;;;18.23;54.32
21433;BME280;18592;49.708;10.900;2024-02-15T08:24:36;99029.53;;;18.26;54.37
21433;BME280;18592;49.708;10.900;2024-02-15T08:26:39;99026.78;;;18.26;54.29
21433;BME280;18592;49.708;10.900;2024-02-15T08:28:41;99025.38;;;18.29;54.53
21433;BME280;18592;49.708;10.900;2024-02-15T08:30:44;99025.06;;;18.30;54.31
21433;BME280;18592;49.708;10.900;2024-02-15T08:32:45;99017.31;;;18.32;54.42
21433;BME280;18592;49.708;10.900;2024-02-15T08:34:49;99014.56;;;18.32;54.46
21433;BME280;18592;49.708;10.900;2024-02-15T08:36:51;99014.00;;;18.35;54.17
21433;BME280;18592;49.708;10.900;2024-02-15T08:38:53;99007.38;;;18.36;54.43
21433;BME280;18592;49.708;10.900;2024-02-15T08:40:55;99009.00;;;18.37;54.14
21433;BME280;18592;49.708;10.900;2024-02-15T08:42:56;99012.28;;;18.39;54.17
21433;BME280;18592;49.708;10.900;2024-02-15T08:44:58;99007.59;;;18.40;54.09
21433;BME280;18592;49.708;10.900;2024-02-15T08:47:00;99008.94;;;18.42;54.25
21433;BME280;18592;49.708;10.900;2024-02-15T08:49:02;99009.78;;;18.43;54.09
21433;BME280;18592;49.708;10.900;2024-02-15T08:51:04;99008.69;;;18.44;54.31
21433;BME280;18592;49.708;10.900;2024-02-15T08:53:07;99012.81;;;18.47;54.00
21433;BME280;18592;49.708;10.900;2024-02-15T08:55:10;99006.69;;;18.50;54.21
21433;BME280;18592;49.708;10.900;2024-02-15T08:57:15;99005.59;;;18.51;54.00
21433;BME280;18592;49.708;10.900;2024-02-15T08:59:17;99010.00;;;18.52;54.30
21433;BME280;18592;49.708;10.900;2024-02-15T09:01:36;99008.88;;;18.53;54.12
21433;BME280;18592;49.708;10.900;2024-02-15T09:03:38;99014.13;;;18.54;54.23
21433;BME280;18592;49.708;10.900;2024-02-15T09:05:58;99016.28;;;18.57;54.08
21433;BME280;18592;49.708;10.900;2024-02-15T09:08:21;99011.59;;;18.58;53.98
21433;BME280;18592;49.708;10.900;2024-02-15T09:10:41;99015.19;;;18.58;53.84
21433;BME280;18592;49.708;10.900;2024-02-15T09:12:44;99006.59;;;18.60;53.81
21433;BME280;18592;49.708;10.900;2024-02-15T09:14:48;99008.25;;;18.61;53.66
21433;BME280;18592;49.708;10.900;2024-02-15T09:16:50;99006.00;;;18.63;53.64
21433;BME280;18592;49.708;10.900;2024-02-15T09:18:51;99015.13;;;18.63;53.67
21433;BME280;18592;49.708;10.900;2024-02-15T09:20:53;99009.28;;;18.65;53.70
21433;BME280;18592;49.708;10.900;2024-02-15T09:22:57;99015.38;;;18.67;53.77
21433;BME280;18592;49.708;10.900;2024-02-15T09:24:58;99010.38;;;18.69;53.88
21433;BME280;18592;49.708;10.900;2024-02-15T09:27:03;99012.00;;;18.70;53.83
21433;BME280;18592;49.708;10.900;2024-02-15T09:29:05;99020.00;;;18.71;53.99
21433;BME280;18592;49.708;10.900;2024-02-15T09:31:09;99020.22;;;18.75;53.90
21433;BME280;18592;49.708;10.900;2024-02-15T09:33:14;99023.56;;;18.77;53.99
21433;BME280;18592;49.708;10.900;2024-02-15T09:35:16;99021.31;;;18.79;53.63
21433;BME280;18592;49.708;10.900;2024-02-15T09:37:18;99016.31;;;18.81;53.95
21433;BME280;18592;49.708;10.900;2024-02-15T09:39:19;99019.59;;;18.83;53.71
21433;BME280;18592;49.708;10.900;2024-02-15T09:41:21;99011.03;;;18.84;53.84
21433;BME280;18592;49.708;10.900;2024-02-15T09:43:22;99014.00;;;18.88;53.70
21433;BME280;18592;49.708;10.900;2024-02-15T09:45:27;99014.84;;;18.88;53.94
21433;BME280;18592;49.708;10.900;2024-02-15T09:47:37;99018.13;;;18.90;53.32
21433;BME280;18592;49.708;10.900;2024-02-15T09:49:39;99015.09;;;18.92;53.67
21433;BME280;18592;49.708;10.900;2024-02-15T09:51:42;99008.16;;;18.94;53.72
21433;BME280;18592;49.708;10.900;2024-02-15T09:53:44;99012.28;;;18.97;53.49
21433;BME280;18592;49.708;10.900;2024-02-15T09:55:48;99014.72;;;18.98;53.48
21433;BME280;18592;49.708;10.900;2024-02-15T09:57:50;99005.31;;;18.99;53.49
21433;BME280;18592;49.708;10.900;2024-02-15T09:59:52;99008.63;;;19.01;53.53
21433;BME280;18592;49.708;10.900;2024-02-15T10:01:58;99007.78;;;19.01;53.08
21433;BME280;18592;49.708;10.900;2024-02-15T10:04:02;99000.84;;;19.03;53.20
21433;BME280;18592;49.708;10.900;2024-02-15T10:06:08;99014.34;;;19.05;52.99
21433;BME280;18592;49.708;10.900;2024-02-15T10:08:09;99009.66;;;19.06;53.32
21433;BME280;18592;49.708;10.900;2024-02-15T10:10:23;98993.06;;;19.06;53.07
21433;BME280;18592;49.708;10.900;2024-02-15T10:12:36;99000.25;;;19.07;53.03
21433;BME280;18592;49.708;10.900;2024-02-15T10:14:38;98993.59;;;19.08;53.16
21433;BME280;18592;49.708;10.900;2024-02-15T10:16:40;98996.09;;;19.09;53.36
21433;BME280;18592;49.708;10.900;2024-02-15T10:18:42;98990.25;;;19.11;52.86
21433;BME280;18592;49.708;10.900;2024-02-15T10:20:57;98980.84;;;19.12;52.77
21433;BME280;18592;49.708;10.900;2024-02-15T10:25:18;98978.31;;;19.15;53.28
21433;BME280;18592;49.708;10.900;2024-02-15T10:27:23;98975.47;;;19.20;53.37
21433;BME280;18592;49.708;10.900;2024-02-15T10:29:24;98964.97;;;19.22;53.32
21433;BME280;18592;49.708;10.900;2024-02-15T10:31:26;98973.47;;;19.26;52.98
21433;BME280;18592;49.708;10.900;2024-02-15T10:33:30;98964.59;;;19.29;52.95
21433;BME280;18592;49.708;10.900;2024-02-15T10:35:32;98967.28;;;19.34;53.08
21433;BME280;18592;49.708;10.900;2024-02-15T10:37:38;98967.78;;;19.36;53.32
21433;BME280;18592;49.708;10.900;2024-02-15T10:39:39;98967.75;;;19.41;53.29
21433;BME280;18592;49.708;10.900;2024-02-15T10:41:43;98972.69;;;19.44;53.08
21433;BME280;18592;49.708;10.900;2024-02-15T10:43:46;98961.28;;;19.50;53.13
21433;BME280;18592;49.708;10.900;2024-02-15T10:45:50;98958.72;;;19.54;53.22
21433;BME280;18592;49.708;10.900;2024-02-15T10:47:53;98958.13;;;19.57;53.07